Time;durP1;ratioP1;P1;durP2;ratioP2;P2;SDS_P1;SDS_P2;PMS_P1;PMS_P2;Temp;Humidity;BMP_temperature;BMP_pressure;BME280_temperature;BME280_humidity;BME280_pressure;Samples;Min_cycle;Max_cycle;Signal;HPM_P1;HPM_P2
2021/10/22 00:02:21;;;;;;;58.13;36.30;;;;;;;;;;6231599;28;20145;-64
2021/10/22 00:05:22;;;;;;;62.30;38.45;;;;;;;;;;6241510;28;20192;-65
2021/10/22 00:08:24;;;;;;;60.28;36.20;;;;;;;;;;6248499;28;20433;-64
2021/10/22 00:11:26;;;;;;;56.30;35.90;;;;;;;;;;6241006;28;20048;-64
2021/10/22 00:14:27;;;;;;;62.28;36.70;;;;;;;;;;6252716;28;20163;-64
2021/10/22 00:17:30;;;;;;;61.72;37.15;;;;;;;;;;6234575;28;20097;-64
2021/10/22 00:20:31;;;;;;;62.28;38.42;;;;;;;;;;6237746;28;20231;-65
2021/10/22 00:23:33;;;;;;;66.25;38.67;;;;;;;;;;6247181;28;20041;-64
2021/10/22 00:26:34;;;;;;;62.83;37.25;;;;;;;;;;6245340;28;20132;-65
2021/10/22 00:29:36;;;;;;;67.80;38.97;;;;;;;;;;6252756;28;20094;-64
2021/10/22 00:32:38;;;;;;;62.50;37.75;;;;;;;;;;6236256;28;20048;-65
2021/10/22 00:35:41;;;;;;;65.07;37.80;;;;;;;;;;6243699;28;20148;-65
2021/10/22 00:38:42;;;;;;;60.90;37.40;;;;;;;;;;6247071;28;20131;-63
2021/10/22 00:41:43;;;;;;;57.92;35.13;;;;;;;;;;6246674;28;20129;-64
2021/10/22 00:44:45;;;;;;;63.30;37.22;;;;;;;;;;6256271;28;20051;-64
2021/10/22 00:47:49;;;;;;;59.75;35.63;;;;;;;;;;6238169;28;20045;-64
2021/10/22 00:50:52;;;;;;;58.40;34.92;;;;;;;;;;6237816;28;20049;-64
2021/10/22 00:53:53;;;;;;;55.22;34.65;;;;;;;;;;6250705;28;20049;-64
2021/10/22 00:56:56;;;;;;;53.15;34.65;;;;;;;;;;6242162;28;20052;-64
2021/10/22 00:59:57;;;;;;;48.50;33.15;;;;;;;;;;6251994;28;20044;-64
2021/10/22 01:03:00;;;;;;;50.53;32.47;;;;;;;;;;6225203;28;20053;-65
2021/10/22 01:06:01;;;;;;;45.55;31.90;;;;;;;;;;6240260;28;20998;-64
2021/10/22 01:09:03;;;;;;;50.58;31.35;;;;;;;;;;6245481;28;20068;-64
2021/10/22 01:12:05;;;;;;;45.45;31.15;;;;;;;;;;6233787;28;20057;-64
2021/10/22 01:15:06;;;;;;;42.47;30.58;;;;;;;;;;6250817;28;20198;-65
2021/10/22 01:18:09;;;;;;;43.22;31.25;;;;;;;;;;6232506;28;20045;-64
2021/10/22 01:21:12;;;;;;;44.22;30.73;;;;;;;;;;6236898;28;20069;-64
2021/10/22 01:24:14;;;;;;;44.28;31.50;;;;;;;;;;6246377;28;20055;-64
2021/10/22 01:27:15;;;;;;;45.92;31.98;;;;;;;;;;6239547;28;20441;-65
2021/10/22 01:30:18;;;;;;;46.15;31.90;;;;;;;;;;6243993;28;20100;-65
2021/10/22 01:33:20;;;;;;;42.60;30.25;;;;;;;;;;6240205;28;20036;-65
2021/10/22 01:36:24;;;;;;;43.28;30.60;;;;;;;;;;6236193;28;20053;-64
2021/10/22 01:39:25;;;;;;;46.05;31.45;;;;;;;;;;6246082;28;20045;-64
2021/10/22 01:42:27;;;;;;;44.88;30.40;;;;;;;;;;6239273;28;20061;-64
2021/10/22 01:45:28;;;;;;;44.95;30.88;;;;;;;;;;6250339;28;20048;-64
2021/10/22 01:48:30;;;;;;;38.42;29.33;;;;;;;;;;6243943;28;20045;-64
2021/10/22 01:51:32;;;;;;;42.42;29.58;;;;;;;;;;6240750;28;20076;-65
2021/10/22 01:54:34;;;;;;;43.03;30.73;;;;;;;;;;6251132;28;20044;-64
2021/10/22 01:57:35;;;;;;;40.28;28.75;;;;;;;;;;6240395;28;20086;-64
2021/10/22 02:00:37;;;;;;;42.25;29.67;;;;;;;;;;6243265;28;20117;-64
2021/10/22 02:03:38;;;;;;;47.03;30.27;;;;;;;;;;6249736;28;20030;-65
2021/10/22 02:06:41;;;;;;;44.20;30.88;;;;;;;;;;6241894;28;20548;-64
2021/10/22 02:09:42;;;;;;;41.50;29.48;;;;;;;;;;6247127;28;20053;-64
2021/10/22 02:12:44;;;;;;;41.13;29.83;;;;;;;;;;6248553;28;20097;-65
2021/10/22 02:15:45;;;;;;;39.80;29.83;;;;;;;;;;6239874;28;20440;-65
2021/10/22 02:18:46;;;;;;;42.00;30.95;;;;;;;;;;6244587;28;20497;-65
2021/10/22 02:21:49;;;;;;;42.08;30.45;;;;;;;;;;6242110;28;20135;-64
2021/10/22 02:24:51;;;;;;;43.25;30.08;;;;;;;;;;6249251;28;20071;-65
2021/10/22 02:27:53;;;;;;;40.70;30.25;;;;;;;;;;6246108;28;20117;-64
2021/10/22 02:30:55;;;;;;;41.13;29.58;;;;;;;;;;6239355;28;20068;-64
2021/10/22 02:33:57;;;;;;;41.70;30.98;;;;;;;;;;6239395;28;20054;-64
2021/10/22 02:36:59;;;;;;;42.83;30.05;;;;;;;;;;6238350;28;20114;-64
2021/10/22 02:40:01;;;;;;;43.10;31.38;;;;;;;;;;6246037;28;20179;-64
2021/10/22 02:43:02;;;;;;;44.53;32.47;;;;;;;;;;6237908;28;20073;-64
2021/10/22 02:46:04;;;;;;;42.22;30.85;;;;;;;;;;6234163;28;20180;-65
2021/10/22 02:49:05;;;;;;;40.70;30.25;;;;;;;;;;6242432;28;20110;-65
2021/10/22 02:52:08;;;;;;;41.72;30.65;;;;;;;;;;6237397;28;20182;-64
2021/10/22 02:55:10;;;;;;;42.55;31.98;;;;;;;;;;6243291;28;20105;-65
2021/10/22 02:58:11;;;;;;;43.40;30.73;;;;;;;;;;6243981;28;20095;-64
2021/10/22 03:01:12;;;;;;;43.33;30.88;;;;;;;;;;6230772;28;20405;-65
2021/10/22 03:04:14;;;;;;;43.42;32.00;;;;;;;;;;6243473;28;20041;-65
2021/10/22 03:07:17;;;;;;;41.15;31.10;;;;;;;;;;6232358;28;20064;-64
2021/10/22 03:10:18;;;;;;;41.17;30.85;;;;;;;;;;6239081;28;20052;-65
2021/10/22 03:13:20;;;;;;;37.20;29.63;;;;;;;;;;6244131;28;20543;-65
2021/10/22 03:16:21;;;;;;;38.35;28.75;;;;;;;;;;6232711;28;21036;-64
2021/10/22 03:19:22;;;;;;;37.58;27.98;;;;;;;;;;6243777;28;20037;-64
2021/10/22 03:22:25;;;;;;;36.33;29.20;;;;;;;;;;6235338;28;20107;-65
2021/10/22 03:25:26;;;;;;;37.00;27.83;;;;;;;;;;6243827;28;20978;-64
2021/10/22 03:28:28;;;;;;;33.53;26.98;;;;;;;;;;6247477;28;20540;-64
2021/10/22 03:31:31;;;;;;;39.00;28.80;;;;;;;;;;6235742;28;20060;-64
2021/10/22 03:34:33;;;;;;;35.22;28.58;;;;;;;;;;6251901;28;20050;-64
2021/10/22 03:37:36;;;;;;;34.95;27.80;;;;;;;;;;6237457;28;20128;-64
2021/10/22 03:40:37;;;;;;;36.50;27.92;;;;;;;;;;6238270;28;20052;-64
2021/10/22 03:43:39;;;;;;;33.88;27.05;;;;;;;;;;6245638;28;20041;-64
2021/10/22 03:46:40;;;;;;;35.00;26.45;;;;;;;;;;6232489;28;20563;-64
2021/10/22 03:49:42;;;;;;;37.53;28.05;;;;;;;;;;6239661;28;20056;-64
2021/10/22 03:52:45;;;;;;;36.83;27.83;;;;;;;;;;6234651;28;20147;-64
2021/10/22 03:55:46;;;;;;;37.45;28.55;;;;;;;;;;6235867;28;20083;-65
2021/10/22 03:58:48;;;;;;;43.45;27.23;;;;;;;;;;6246593;28;20061;-64
2021/10/22 04:01:50;;;;;;;43.83;27.70;;;;;;;;;;6226398;28;20048;-64
2021/10/22 04:04:51;;;;;;;46.45;29.90;;;;;;;;;;6241082;28;20048;-64
2021/10/22 04:07:56;;;;;;;42.25;29.33;;;;;;;;;;6231629;28;20049;-64
2021/10/22 04:10:57;;;;;;;43.45;29.65;;;;;;;;;;6235797;28;20122;-64
2021/10/22 04:14:01;;;;;;;41.17;29.48;;;;;;;;;;6245754;28;20037;-65
2021/10/22 04:17:02;;;;;;;43.70;29.17;;;;;;;;;;6226976;28;20057;-65
2021/10/22 04:20:04;;;;;;;50.35;30.60;;;;;;;;;;6247055;28;20235;-64
2021/10/22 04:23:06;;;;;;;45.17;30.48;;;;;;;;;;6230519;28;20488;-64
2021/10/22 04:26:08;;;;;;;48.00;30.88;;;;;;;;;;6236505;28;20675;-64
2021/10/22 04:29:09;;;;;;;50.10;30.45;;;;;;;;;;6247616;28;20574;-64
2021/10/22 04:32:10;;;;;;;50.60;32.15;;;;;;;;;;6230819;28;20633;-65
2021/10/22 04:35:12;;;;;;;50.63;32.03;;;;;;;;;;6238305;28;20128;-65
2021/10/22 04:41:34;;;;;;;49.67;31.17;;;;;;;;;;6241247;28;20418;-65
2021/10/22 04:44:36;;;;;;;49.35;32.10;;;;;;;;;;6256682;28;20060;-64
2021/10/22 04:47:37;;;;;;;46.08;31.17;;;;;;;;;;6237826;28;20098;-65
2021/10/22 04:50:43;;;;;;;45.13;31.33;;;;;;;;;;6236297;28;20068;-64
2021/10/22 04:53:45;;;;;;;47.90;31.48;;;;;;;;;;6249461;28;20041;-64
2021/10/22 04:56:47;;;;;;;50.13;31.88;;;;;;;;;;6239375;28;20053;-64
2021/10/22 04:59:48;;;;;;;48.38;31.00;;;;;;;;;;6254434;28;20049;-64
2021/10/22 05:02:50;;;;;;;47.72;31.35;;;;;;;;;;6236637;28;20123;-64
2021/10/22 05:05:51;;;;;;;50.88;32.53;;;;;;;;;;6242145;28;21326;-65
2021/10/22 05:08:54;;;;;;;51.17;32.78;;;;;;;;;;6250457;28;20111;-64
2021/10/22 05:11:55;;;;;;;54.97;32.13;;;;;;;;;;6243172;28;20091;-64
2021/10/22 05:14:57;;;;;;;48.85;31.25;;;;;;;;;;6253850;28;20041;-65
2021/10/22 05:17:58;;;;;;;49.97;32.00;;;;;;;;;;6231266;28;20053;-64
2021/10/22 05:20:59;;;;;;;49.53;32.45;;;;;;;;;;6239010;28;20048;-64
2021/10/22 05:24:02;;;;;;;49.00;31.40;;;;;;;;;;6247668;28;20478;-64
2021/10/22 05:27:04;;;;;;;48.70;31.52;;;;;;;;;;6244508;28;20170;-63
2021/10/22 05:30:06;;;;;;;52.05;32.22;;;;;;;;;;6248764;28;20076;-65
2021/10/22 05:33:08;;;;;;;52.53;33.28;;;;;;;;;;6234859;28;20053;-65
2021/10/22 05:36:10;;;;;;;52.05;31.95;;;;;;;;;;6235248;28;20054;-65
2021/10/22 05:39:15;;;;;;;49.17;32.78;;;;;;;;;;6251915;28;20160;-65
2021/10/22 05:42:16;;;;;;;52.47;33.25;;;;;;;;;;6237820;28;20172;-65
2021/10/22 05:45:17;;;;;;;53.22;32.17;;;;;;;;;;6243587;28;20066;-65
2021/10/22 05:48:19;;;;;;;54.30;33.78;;;;;;;;;;6237828;28;20639;-65
2021/10/22 05:51:20;;;;;;;57.42;34.92;;;;;;;;;;6239139;28;20051;-64
2021/10/22 05:54:23;;;;;;;59.80;34.05;;;;;;;;;;6247993;28;20076;-65
2021/10/22 05:57:24;;;;;;;60.80;33.65;;;;;;;;;;6237570;28;20053;-65
2021/10/22 06:00:26;;;;;;;69.05;33.72;;;;;;;;;;6236810;28;20464;-65
2021/10/22 06:03:27;;;;;;;60.63;33.83;;;;;;;;;;6245166;28;20090;-65
2021/10/22 06:06:29;;;;;;;62.70;34.63;;;;;;;;;;6236160;28;20049;-64
2021/10/22 06:09:31;;;;;;;67.53;34.65;;;;;;;;;;6244685;28;20053;-64
2021/10/22 06:12:33;;;;;;;64.95;34.65;;;;;;;;;;6236756;28;20126;-64
2021/10/22 06:15:34;;;;;;;71.55;37.15;;;;;;;;;;6235050;28;20049;-64
2021/10/22 06:18:38;;;;;;;73.40;37.15;;;;;;;;;;6242259;28;20170;-65
2021/10/22 06:21:52;;;;;;;89.75;38.53;;;;;;;;;;6234827;28;20046;-65
2021/10/22 06:24:55;;;;;;;77.72;36.55;;;;;;;;;;6250107;28;20644;-65
2021/10/22 06:27:56;;;;;;;73.13;36.72;;;;;;;;;;6236165;28;20231;-65
2021/10/22 06:30:58;;;;;;;76.30;37.35;;;;;;;;;;6232954;28;20496;-65
2021/10/22 06:34:01;;;;;;;72.47;35.10;;;;;;;;;;6238086;28;20606;-65
2021/10/22 06:37:02;;;;;;;77.93;38.10;;;;;;;;;;6231822;28;20077;-66
2021/10/22 06:40:05;;;;;;;79.57;36.00;;;;;;;;;;6242477;28;20187;-65
2021/10/22 06:43:07;;;;;;;74.55;35.38;;;;;;;;;;6236031;28;20445;-65
2021/10/22 06:46:09;;;;;;;71.80;35.58;;;;;;;;;;6244754;28;20079;-64
2021/10/22 06:49:10;;;;;;;69.57;35.05;;;;;;;;;;6251716;28;20060;-64
2021/10/22 06:52:11;;;;;;;70.32;34.35;;;;;;;;;;6239000;28;20150;-64
2021/10/22 06:55:14;;;;;;;65.95;34.88;;;;;;;;;;6240306;28;20101;-65
2021/10/22 06:58:16;;;;;;;66.75;33.47;;;;;;;;;;6246018;28;20183;-66
2021/10/22 07:01:18;;;;;;;71.25;34.95;;;;;;;;;;6229877;28;20053;-64
2021/10/22 07:04:19;;;;;;;68.70;33.55;;;;;;;;;;6245988;28;20083;-64
2021/10/22 07:07:24;;;;;;;68.40;34.85;;;;;;;;;;6236422;28;20040;-66
2021/10/22 07:10:28;;;;;;;64.97;32.75;;;;;;;;;;6248022;28;21355;-65
2021/10/22 07:13:31;;;;;;;67.28;33.20;;;;;;;;;;6246090;28;20041;-65
2021/10/22 07:16:32;;;;;;;66.17;35.57;;;;;;;;;;6231567;28;20041;-65
2021/10/22 07:19:35;;;;;;;61.13;34.13;;;;;;;;;;6245025;28;20049;-65
2021/10/22 07:22:40;;;;;;;69.18;33.63;;;;;;;;;;6233816;28;20048;-64
2021/10/22 07:25:42;;;;;;;65.28;32.80;;;;;;;;;;6235101;28;20338;-65
2021/10/22 07:28:44;;;;;;;67.28;32.88;;;;;;;;;;6242385;28;20045;-66
2021/10/22 07:31:45;;;;;;;57.00;30.98;;;;;;;;;;6230661;28;20232;-65
2021/10/22 07:34:47;;;;;;;60.65;32.00;;;;;;;;;;6242538;28;20253;-65
2021/10/22 07:37:48;;;;;;;57.08;30.77;;;;;;;;;;6237366;28;20045;-65
2021/10/22 07:40:51;;;;;;;57.85;31.35;;;;;;;;;;6234542;28;20123;-66
2021/10/22 07:43:52;;;;;;;59.78;31.40;;;;;;;;;;6255707;28;20722;-65
2021/10/22 07:46:54;;;;;;;57.72;28.90;;;;;;;;;;6238011;28;20068;-65
2021/10/22 07:49:56;;;;;;;52.38;29.90;;;;;;;;;;6239607;28;20053;-66
2021/10/22 07:52:57;;;;;;;55.30;31.00;;;;;;;;;;6248189;28;20167;-65
2021/10/22 07:56:00;;;;;;;55.17;30.20;;;;;;;;;;6239998;28;20059;-65
2021/10/22 07:59:03;;;;;;;51.37;29.00;;;;;;;;;;6253865;28;20069;-65
2021/10/22 08:02:05;;;;;;;49.47;27.33;;;;;;;;;;6243518;28;20037;-65
2021/10/22 08:05:07;;;;;;;44.72;26.98;;;;;;;;;;6247191;28;20123;-66
2021/10/22 08:08:09;;;;;;;43.80;27.33;;;;;;;;;;6238569;28;20042;-65
2021/10/22 08:11:12;;;;;;;44.92;27.17;;;;;;;;;;6239171;28;20191;-65
2021/10/22 08:14:14;;;;;;;46.17;28.40;;;;;;;;;;6250915;28;20575;-65
2021/10/22 08:17:17;;;;;;;46.58;28.92;;;;;;;;;;6233767;28;20577;-65
2021/10/22 08:20:22;;;;;;;48.35;28.38;;;;;;;;;;6241877;28;20057;-65
2021/10/22 08:23:23;;;;;;;47.22;28.55;;;;;;;;;;6247886;28;20045;-65
2021/10/22 08:26:26;;;;;;;53.80;30.77;;;;;;;;;;6237107;28;20286;-65
2021/10/22 08:29:27;;;;;;;56.85;31.60;;;;;;;;;;6247438;28;20167;-65
2021/10/22 08:32:29;;;;;;;58.25;33.17;;;;;;;;;;6241326;28;20497;-65
2021/10/22 08:35:31;;;;;;;56.30;33.92;;;;;;;;;;6238272;28;20251;-66
2021/10/22 08:38:33;;;;;;;63.42;34.28;;;;;;;;;;6250795;28;20072;-64
2021/10/22 08:41:36;;;;;;;57.22;33.75;;;;;;;;;;6246674;28;20060;-66
2021/10/22 08:44:37;;;;;;;57.47;34.97;;;;;;;;;;6248169;28;20451;-66
2021/10/22 08:47:39;;;;;;;58.17;35.53;;;;;;;;;;6234560;28;20057;-65
2021/10/22 08:50:41;;;;;;;54.40;33.53;;;;;;;;;;6236033;28;20969;-66
2021/10/22 08:53:42;;;;;;;53.15;33.40;;;;;;;;;;6247233;28;20409;-66
2021/10/22 08:56:45;;;;;;;53.88;33.35;;;;;;;;;;6239062;28;20132;-66
2021/10/22 08:59:46;;;;;;;55.37;33.33;;;;;;;;;;6250742;28;20075;-66
2021/10/22 09:02:49;;;;;;;44.90;30.02;;;;;;;;;;6239059;28;20494;-66
2021/10/22 09:05:57;;;;;;;35.25;25.65;;;;;;;;;;6244158;28;20489;-68
2021/10/22 09:08:58;;;;;;;34.40;24.35;;;;;;;;;;6257075;28;20128;-67
2021/10/22 09:12:01;;;;;;;30.92;22.10;;;;;;;;;;6250340;28;20130;-68
2021/10/22 09:15:05;;;;;;;29.13;21.00;;;;;;;;;;6257423;28;20055;-70
2021/10/22 09:18:15;;;;;;;33.53;22.85;;;;;;;;;;6232327;28;20057;-68
2021/10/22 09:21:23;;;;;;;32.35;21.55;;;;;;;;;;6248963;28;20054;-68
2021/10/22 09:24:26;;;;;;;30.60;20.73;;;;;;;;;;6245122;28;20139;-68
2021/10/22 09:27:32;;;;;;;27.60;19.05;;;;;;;;;;6236886;28;20107;-68
2021/10/22 09:30:37;;;;;;;26.73;20.30;;;;;;;;;;6243766;28;20619;-68
2021/10/22 09:33:50;;;;;;;29.75;20.05;;;;;;;;;;6247777;28;20151;-68
2021/10/22 09:36:51;;;;;;;24.27;17.87;;;;;;;;;;6244127;28;20191;-68
2021/10/22 09:40:00;;;;;;;23.88;17.90;;;;;;;;;;6250117;28;20161;-68
2021/10/22 09:43:11;;;;;;;23.38;17.85;;;;;;;;;;6242527;28;20049;-69
2021/10/22 09:46:14;;;;;;;20.95;16.85;;;;;;;;;;6230815;28;20050;-68
2021/10/22 09:49:24;;;;;;;21.93;17.40;;;;;;;;;;6242732;28;20056;-69
2021/10/22 09:52:27;;;;;;;23.38;17.42;;;;;;;;;;6245338;28;20500;-68
2021/10/22 09:55:29;;;;;;;23.80;18.17;;;;;;;;;;6245781;28;20045;-68
2021/10/22 09:58:32;;;;;;;22.45;17.23;;;;;;;;;;6245060;28;20080;-69
2021/10/22 10:01:35;;;;;;;22.00;16.70;;;;;;;;;;6235859;28;20085;-68
2021/10/22 10:04:37;;;;;;;20.90;15.40;;;;;;;;;;6252287;28;20131;-68
2021/10/22 10:07:38;;;;;;;21.25;15.57;;;;;;;;;;6237896;28;20048;-68
2021/10/22 10:10:40;;;;;;;19.80;15.65;;;;;;;;;;6253812;28;20041;-68
2021/10/22 10:13:43;;;;;;;20.27;16.15;;;;;;;;;;6257840;28;20395;-69
2021/10/22 10:16:44;;;;;;;;;;;;;;;;;;6244368;28;20048;-68
2021/10/22 10:19:46;;;;;;;22.25;16.75;;;;;;;;;;6251887;28;19924;-70
2021/10/22 10:22:48;;;;;;;21.10;15.37;;;;;;;;;;6234600;28;20060;-73
2021/10/22 10:25:49;;;;;;;20.60;15.60;;;;;;;;;;6234343;28;20120;-70
2021/10/22 10:28:52;;;;;;;18.42;15.38;;;;;;;;;;6252462;28;20072;-69
2021/10/22 10:31:59;;;;;;;17.58;14.05;;;;;;;;;;6245086;28;20196;-69
2021/10/22 10:35:01;;;;;;;21.02;18.05;;;;;;;;;;6245937;28;20045;-68
2021/10/22 10:38:03;;;;;;;16.75;14.23;;;;;;;;;;6241500;28;20191;-66
2021/10/22 10:41:17;;;;;;;19.07;14.20;;;;;;;;;;6235353;28;20037;-66
2021/10/22 10:44:32;;;;;;;13.50;11.95;;;;;;;;;;6256984;28;20045;-67
2021/10/22 10:47:42;;;;;;;13.75;11.55;;;;;;;;;;6241751;28;20077;-68
2021/10/22 10:50:47;;;;;;;17.98;12.93;;;;;;;;;;6238071;28;20090;-68
2021/10/22 10:54:01;;;;;;;16.60;13.43;;;;;;;;;;6257047;28;20067;-68
2021/10/22 10:57:21;;;;;;;14.82;12.43;;;;;;;;;;6239481;28;20566;-67
2021/10/22 11:00:24;;;;;;;17.02;13.85;;;;;;;;;;6241690;28;20527;-67
2021/10/22 11:03:28;;;;;;;15.25;12.63;;;;;;;;;;6246896;28;20064;-66
2021/10/22 11:06:38;;;;;;;18.25;15.20;;;;;;;;;;6235624;28;20048;-67
2021/10/22 11:09:43;;;;;;;18.60;14.65;;;;;;;;;;6249262;28;20061;-68
2021/10/22 11:12:59;;;;;;;17.55;14.57;;;;;;;;;;6233507;28;20054;-67
2021/10/22 11:16:03;;;;;;;17.60;14.45;;;;;;;;;;6239469;28;20098;-68
2021/10/22 11:19:06;;;;;;;18.30;14.80;;;;;;;;;;6242808;28;20454;-67
2021/10/22 11:22:08;;;;;;;16.02;13.98;;;;;;;;;;6236652;28;20073;-66
2021/10/22 11:25:11;;;;;;;19.00;14.20;;;;;;;;;;6245170;28;20064;-67
2021/10/22 11:28:13;;;;;;;18.90;15.45;;;;;;;;;;6247839;28;20052;-65
2021/10/22 11:31:15;;;;;;;;;;;;;;;;;;6231485;28;20060;-65
2021/10/22 11:34:19;;;;;;;19.70;15.15;;;;;;;;;;6239234;28;20388;-65
2021/10/22 11:37:21;;;;;;;15.02;12.85;;;;;;;;;;6225386;28;20132;-66
2021/10/22 11:40:25;;;;;;;16.35;13.98;;;;;;;;;;6237387;28;20064;-65
2021/10/22 11:43:27;;;;;;;18.05;13.68;;;;;;;;;;6242255;28;20096;-64
2021/10/22 11:46:38;;;;;;;17.00;14.73;;;;;;;;;;6233265;28;20041;-65
2021/10/22 11:49:42;;;;;;;18.52;14.82;;;;;;;;;;6243711;28;20657;-65
2021/10/22 11:52:44;;;;;;;17.83;14.48;;;;;;;;;;6238175;28;20064;-65
2021/10/22 11:55:57;;;;;;;16.55;14.35;;;;;;;;;;6246555;28;20175;-65
2021/10/22 11:58:59;;;;;;;19.67;15.90;;;;;;;;;;6251601;28;20186;-64
2021/10/22 12:02:05;;;;;;;17.57;13.87;;;;;;;;;;6230858;28;20048;-65
2021/10/22 12:05:09;;;;;;;20.50;15.73;;;;;;;;;;6254187;28;20575;-66
2021/10/22 12:08:16;;;;;;;17.85;15.00;;;;;;;;;;6260162;28;20106;-65
2021/10/22 12:11:18;;;;;;;22.15;17.27;;;;;;;;;;6254669;28;20051;-66
2021/10/22 12:14:30;;;;;;;20.15;16.70;;;;;;;;;;6270607;28;20060;-65
2021/10/22 12:17:32;;;;;;;21.35;14.52;;;;;;;;;;6247332;28;20045;-65
2021/10/22 12:20:35;;;;;;;21.90;17.42;;;;;;;;;;6259399;28;20105;-66
2021/10/22 12:23:37;;;;;;;19.17;16.65;;;;;;;;;;6248190;28;20048;-64
2021/10/22 12:26:39;;;;;;;21.15;17.75;;;;;;;;;;6256427;28;20498;-65
2021/10/22 12:30:01;;;;;;;21.75;17.33;;;;;;;;;;6265581;28;20653;-65
2021/10/22 12:33:09;;;;;;;22.53;18.33;;;;;;;;;;6235294;28;20186;-64
2021/10/22 12:36:16;;;;;;;26.08;18.75;;;;;;;;;;6235730;28;20601;-64
2021/10/22 12:39:21;;;;;;;21.35;16.50;;;;;;;;;;6258859;28;20491;-64
2021/10/22 12:42:24;;;;;;;21.73;15.80;;;;;;;;;;6242066;28;20046;-66
2021/10/22 12:45:25;;;;;;;19.45;16.35;;;;;;;;;;6242022;28;20047;-66
2021/10/22 12:48:28;;;;;;;20.33;17.77;;;;;;;;;;6248267;28;20046;-65
2021/10/22 12:51:31;;;;;;;20.15;16.63;;;;;;;;;;6242531;28;20125;-65
2021/10/22 12:54:44;;;;;;;21.35;16.55;;;;;;;;;;6259236;28;20037;-65
2021/10/22 12:57:45;;;;;;;18.60;16.33;;;;;;;;;;6250756;28;20052;-65
2021/10/22 13:01:04;;;;;;;18.73;16.48;;;;;;;;;;6237745;28;20051;-65
2021/10/22 13:04:06;;;;;;;22.60;18.42;;;;;;;;;;6245628;28;20060;-65
2021/10/22 13:07:14;;;;;;;20.88;16.95;;;;;;;;;;6236333;28;20050;-65
2021/10/22 13:10:20;;;;;;;20.65;17.33;;;;;;;;;;6242657;28;20073;-67
2021/10/22 13:13:40;;;;;;;19.75;16.05;;;;;;;;;;6251142;28;20053;-66
2021/10/22 13:23:23;;;;;;;19.70;16.92;;;;;;;;;;6255907;28;20072;-65
2021/10/22 13:26:25;;;;;;;20.60;17.58;;;;;;;;;;6245296;28;20100;-65
2021/10/22 13:29:26;;;;;;;19.50;16.77;;;;;;;;;;6250463;28;20046;-65
2021/10/22 13:32:29;;;;;;;18.35;16.38;;;;;;;;;;6224507;28;20099;-64
2021/10/22 13:35:31;;;;;;;20.08;16.90;;;;;;;;;;6238241;28;20041;-66
2021/10/22 13:38:34;;;;;;;19.30;17.30;;;;;;;;;;6249196;28;20151;-64
2021/10/22 13:41:35;;;;;;;;;;;;;;;;;;6238868;28;20037;-65
2021/10/22 13:44:37;;;;;;;18.20;14.77;;;;;;;;;;6249756;28;20059;-64
2021/10/22 13:47:39;;;;;;;16.35;14.27;;;;;;;;;;6228128;28;20724;-64
2021/10/22 13:50:41;;;;;;;16.08;12.57;;;;;;;;;;6231213;28;20091;-65
2021/10/22 13:53:45;;;;;;;16.73;13.77;;;;;;;;;;6251337;28;20466;-65
2021/10/22 13:56:46;;;;;;;16.95;12.30;;;;;;;;;;6239991;28;20052;-65
2021/10/22 13:59:48;;;;;;;15.55;11.43;;;;;;;;;;6248673;28;20051;-64
2021/10/22 14:02:49;;;;;;;13.38;10.65;;;;;;;;;;6230993;28;20067;-65
2021/10/22 14:05:51;;;;;;;13.95;11.25;;;;;;;;;;6237008;28;20053;-64
2021/10/22 14:08:54;;;;;;;16.27;11.23;;;;;;;;;;6243032;28;20047;-64
2021/10/22 14:11:58;;;;;;;14.18;10.75;;;;;;;;;;6240318;28;20044;-65
2021/10/22 14:15:09;;;;;;;15.82;11.82;;;;;;;;;;6252296;28;20041;-64
2021/10/22 14:18:29;;;;;;;17.42;15.02;;;;;;;;;;6232469;28;20121;-65
2021/10/22 14:28:52;;;;;;;16.63;11.65;;;;;;;;;;6224513;28;20072;-64
2021/10/22 14:28:55;;;;;;;21.65;12.32;;;;;;;;;;6245466;28;20049;-64
2021/10/22 14:31:56;;;;;;;18.23;12.82;;;;;;;;;;6223180;28;20063;-65
2021/10/22 14:34:59;;;;;;;14.75;11.70;;;;;;;;;;6243566;28;20490;-65
2021/10/22 14:38:01;;;;;;;16.10;13.98;;;;;;;;;;6236706;28;20100;-66
2021/10/22 14:41:04;;;;;;;15.75;13.52;;;;;;;;;;6237063;28;20045;-65
2021/10/22 14:44:07;;;;;;;15.68;12.70;;;;;;;;;;6244756;28;20103;-65
2021/10/22 14:47:19;;;;;;;14.00;11.88;;;;;;;;;;6239863;28;20127;-65
2021/10/22 14:50:23;;;;;;;15.82;12.30;;;;;;;;;;6242920;28;20132;-67
2021/10/22 14:53:34;;;;;;;13.63;11.73;;;;;;;;;;6242790;28;20056;-65
2021/10/22 14:56:38;;;;;;;17.17;10.82;;;;;;;;;;6235192;28;20512;-65
2021/10/22 14:59:39;;;;;;;15.50;12.45;;;;;;;;;;6246282;28;20516;-66
2021/10/22 15:02:40;;;;;;;13.98;11.52;;;;;;;;;;6226930;28;20150;-66
2021/10/22 15:05:42;;;;;;;14.38;10.40;;;;;;;;;;6230447;28;20277;-67
2021/10/22 15:08:43;;;;;;;16.55;11.25;;;;;;;;;;6242528;28;20191;-66
2021/10/22 15:11:46;;;;;;;13.93;11.25;;;;;;;;;;6236644;28;20052;-66
2021/10/22 15:14:49;;;;;;;17.58;12.38;;;;;;;;;;6242365;28;20076;-65
2021/10/22 15:17:50;;;;;;;19.20;14.00;;;;;;;;;;6228793;28;20045;-67
2021/10/22 15:20:51;;;;;;;15.50;12.88;;;;;;;;;;6240916;28;20280;-66
2021/10/22 15:23:54;;;;;;;17.00;13.05;;;;;;;;;;6253198;28;20106;-66
2021/10/22 15:26:56;;;;;;;17.17;12.40;;;;;;;;;;6236753;28;20049;-67
2021/10/22 15:29:58;;;;;;;17.48;13.02;;;;;;;;;;6244854;28;20045;-65
2021/10/22 15:32:59;;;;;;;18.15;13.00;;;;;;;;;;6226404;28;20091;-65
2021/10/22 15:36:02;;;;;;;13.85;11.57;;;;;;;;;;6243363;28;20045;-66
2021/10/22 15:39:04;;;;;;;16.48;12.88;;;;;;;;;;6253895;28;20140;-66
2021/10/22 15:42:07;;;;;;;17.53;14.63;;;;;;;;;;6241036;28;20048;-66
2021/10/22 15:45:09;;;;;;;15.05;13.38;;;;;;;;;;6255349;28;20040;-68
2021/10/22 15:48:10;;;;;;;16.55;14.18;;;;;;;;;;6238125;28;20049;-65
2021/10/22 15:51:12;;;;;;;16.08;14.15;;;;;;;;;;6237051;28;20071;-64
2021/10/22 15:54:14;;;;;;;19.20;13.90;;;;;;;;;;6256333;28;20485;-65
2021/10/22 15:57:16;;;;;;;17.10;13.38;;;;;;;;;;6252810;28;20506;-65
2021/10/22 16:00:23;;;;;;;18.95;14.43;;;;;;;;;;6255198;28;20083;-66
2021/10/22 16:03:25;;;;;;;18.55;14.40;;;;;;;;;;6234357;28;20098;-65
2021/10/22 16:06:29;;;;;;;17.17;14.80;;;;;;;;;;6227007;28;20145;-65
2021/10/22 16:09:34;;;;;;;18.55;13.85;;;;;;;;;;6240654;28;20053;-65
2021/10/22 16:12:39;;;;;;;19.83;15.55;;;;;;;;;;6232890;28;20049;-65
2021/10/22 16:15:42;;;;;;;18.10;14.20;;;;;;;;;;6230703;28;20045;-65
2021/10/22 16:18:44;;;;;;;17.92;14.18;;;;;;;;;;6239462;28;20064;-65
2021/10/22 16:21:45;;;;;;;18.33;15.18;;;;;;;;;;6236214;28;20125;-65
2021/10/22 16:24:47;;;;;;;21.05;14.88;;;;;;;;;;6258415;28;20195;-65
2021/10/22 16:27:50;;;;;;;23.23;13.90;;;;;;;;;;6236021;28;20042;-65
2021/10/22 16:30:51;;;;;;;19.85;16.27;;;;;;;;;;6235587;28;20412;-64
2021/10/22 16:37:11;;;;;;;21.20;16.50;;;;;;;;;;6236088;28;20461;-65
2021/10/22 16:40:13;;;;;;;20.35;15.38;;;;;;;;;;6251225;28;20052;-66
2021/10/22 16:43:16;;;;;;;19.58;14.95;;;;;;;;;;6255709;28;20037;-64
2021/10/22 16:46:17;;;;;;;22.50;15.73;;;;;;;;;;6244668;28;20041;-64
2021/10/22 16:49:19;;;;;;;21.67;16.50;;;;;;;;;;6243854;28;20162;-64
2021/10/22 16:52:20;;;;;;;27.15;17.80;;;;;;;;;;6241596;28;20497;-64
2021/10/22 16:55:24;;;;;;;23.90;16.70;;;;;;;;;;6241845;28;20080;-64
2021/10/22 16:58:27;;;;;;;24.42;15.80;;;;;;;;;;6254287;28;20054;-64
2021/10/22 17:01:28;;;;;;;20.83;17.80;;;;;;;;;;6235564;28;20061;-64
2021/10/22 17:04:30;;;;;;;24.52;17.05;;;;;;;;;;6250062;28;20076;-64
2021/10/22 17:07:31;;;;;;;21.38;15.77;;;;;;;;;;6241195;28;20038;-64
2021/10/22 17:10:32;;;;;;;23.02;17.23;;;;;;;;;;6239584;28;20053;-64
2021/10/22 17:13:35;;;;;;;21.52;16.60;;;;;;;;;;6254896;28;20099;-67
2021/10/22 17:16:37;;;;;;;26.75;17.73;;;;;;;;;;6239975;28;20612;-67
2021/10/22 17:19:39;;;;;;;23.05;18.05;;;;;;;;;;6254600;28;20388;-67
2021/10/22 17:22:42;;;;;;;22.90;17.00;;;;;;;;;;6245107;28;20059;-67
2021/10/22 17:25:45;;;;;;;22.05;16.95;;;;;;;;;;6241334;28;20061;-66
2021/10/22 17:28:50;;;;;;;23.30;17.13;;;;;;;;;;6254870;28;20110;-67
2021/10/22 17:31:52;;;;;;;25.42;18.23;;;;;;;;;;6243954;28;20049;-66
2021/10/22 17:34:54;;;;;;;21.38;17.15;;;;;;;;;;6251844;28;20099;-66
2021/10/22 17:37:55;;;;;;;25.10;19.05;;;;;;;;;;6241851;28;20045;-66
2021/10/22 17:40:56;;;;;;;26.73;18.95;;;;;;;;;;6238845;28;20063;-66
2021/10/22 17:43:59;;;;;;;28.30;19.08;;;;;;;;;;6254996;28;20332;-66
2021/10/22 17:47:01;;;;;;;25.40;18.70;;;;;;;;;;6241533;28;20057;-66
2021/10/22 17:50:02;;;;;;;30.92;19.08;;;;;;;;;;6247229;28;20053;-64
2021/10/22 17:53:04;;;;;;;23.83;18.33;;;;;;;;;;6239511;28;20538;-64
2021/10/22 17:56:06;;;;;;;25.50;18.85;;;;;;;;;;6244505;28;20118;-64
2021/10/22 17:59:08;;;;;;;25.50;18.10;;;;;;;;;;6257891;28;20102;-64
2021/10/22 18:02:10;;;;;;;24.53;17.67;;;;;;;;;;6233769;28;20083;-64
2021/10/22 18:05:11;;;;;;;27.13;17.77;;;;;;;;;;6244552;28;20553;-65